createdAt,value
2018-07-05T00:01:56.588Z,6.50
2018-07-05T00:04:36.271Z,5.10
2018-07-05T00:07:17.242Z,5.07
2018-07-05T00:09:56.800Z,5.20
2018-07-05T00:12:36.596Z,4.70
2018-07-05T00:15:16.572Z,5.73
2018-07-05T00:17:57.047Z,5.40
2018-07-05T00:20:37.055Z,6.47
2018-07-05T00:23:16.903Z,6.00
2018-07-05T00:25:57.552Z,5.77
2018-07-05T00:28:37.593Z,6.47
2018-07-05T00:31:19.616Z,6.50
2018-07-05T00:34:00.248Z,6.60
2018-07-05T00:36:40.503Z,5.70
2018-07-05T00:39:23.005Z,6.57
2018-07-05T00:42:04.396Z,6.13
2018-07-05T00:44:44.304Z,6.53
2018-07-05T00:47:23.947Z,6.70
2018-07-05T00:50:04.526Z,7.83
2018-07-05T00:52:47.604Z,7.13
2018-07-05T00:55:30.847Z,7.90
2018-07-05T00:58:16.291Z,9.10
2018-07-05T01:03:40.256Z,9.20
2018-07-05T01:06:21.174Z,10.00
2018-07-05T01:09:02.234Z,10.00
2018-07-05T01:11:43.187Z,10.90
2018-07-05T01:14:23.218Z,10.10
2018-07-05T01:17:02.900Z,9.13
2018-07-05T01:19:42.800Z,10.20
2018-07-05T01:22:24.193Z,9.83
2018-07-05T01:25:04.491Z,7.37
2018-07-05T01:27:44.142Z,7.30
2018-07-05T01:30:24.125Z,7.13
2018-07-05T01:33:04.283Z,7.53
2018-07-05T01:35:47.825Z,9.57
2018-07-05T01:38:27.480Z,15.83
2018-07-05T01:41:07.539Z,17.67
2018-07-05T01:43:47.080Z,17.27
2018-07-05T01:46:28.072Z,18.90
2018-07-05T01:49:07.746Z,18.13
2018-07-05T01:51:47.750Z,15.97
2018-07-05T01:54:27.318Z,20.77
2018-07-05T01:57:10.870Z,20.30
2018-07-05T01:59:53.177Z,17.67
2018-07-05T02:02:39.977Z,17.97
2018-07-05T02:05:23.915Z,18.33
2018-07-05T02:08:05.035Z,18.20
2018-07-05T02:10:44.662Z,18.07
2018-07-05T02:13:24.571Z,18.03
2018-07-05T02:16:04.149Z,17.70
2018-07-05T02:18:46.004Z,16.23
2018-07-05T02:21:29.048Z,19.37
2018-07-05T02:24:08.932Z,21.83
2018-07-05T02:26:50.829Z,25.60
2018-07-05T02:29:32.726Z,24.40
2018-07-05T02:32:12.408Z,23.77
2018-07-05T02:34:52.477Z,26.23
2018-07-05T02:37:37.387Z,26.20
2018-07-05T02:40:18.940Z,26.73
2018-07-05T02:42:58.440Z,25.53
2018-07-05T02:45:38.389Z,26.50
2018-07-05T02:48:18.205Z,25.13
2018-07-05T02:50:58.359Z,24.40
2018-07-05T02:53:38.106Z,25.77
2018-07-05T02:56:19.188Z,28.00
2018-07-05T02:58:59.371Z,42.27
2018-07-05T03:01:39.413Z,44.83
2018-07-05T03:04:19.853Z,49.07
2018-07-05T03:07:03.590Z,47.80
2018-07-05T03:09:43.434Z,45.23
2018-07-05T03:12:23.197Z,46.40
2018-07-05T03:15:04.062Z,31.80
2018-07-05T03:17:49.737Z,26.70
2018-07-05T03:20:34.471Z,20.30
2018-07-05T03:23:14.835Z,19.87
2018-07-05T03:25:54.456Z,20.70
2018-07-05T03:28:34.596Z,20.27
2018-07-05T03:31:14.399Z,24.20
2018-07-05T03:33:54.448Z,23.87
2018-07-05T03:36:34.148Z,51.40
2018-07-05T03:39:14.359Z,50.97
2018-07-05T03:41:54.293Z,49.10
2018-07-05T03:44:34.600Z,47.70
2018-07-05T03:47:14.410Z,48.60
2018-07-05T03:49:54.610Z,49.97
2018-07-05T03:52:34.264Z,52.83
2018-07-05T03:55:14.633Z,47.80
2018-07-05T03:57:55.385Z,50.13
2018-07-05T04:03:19.580Z,30.10
2018-07-05T04:05:59.965Z,23.03
2018-07-05T04:08:39.764Z,15.60
2018-07-05T04:11:20.944Z,21.07
2018-07-05T04:14:00.510Z,36.60
2018-07-05T04:19:22.767Z,19.20
2018-07-05T04:22:07.357Z,21.90
2018-07-05T04:24:47.424Z,19.93
2018-07-05T04:27:27.198Z,20.40
2018-07-05T04:30:10.592Z,18.70
2018-07-05T04:32:50.172Z,20.10
2018-07-05T04:35:29.937Z,20.03
2018-07-05T04:38:15.611Z,23.43
2018-07-05T04:40:58.506Z,23.27
2018-07-05T04:43:38.563Z,23.83
2018-07-05T04:46:18.171Z,24.77
2018-07-05T04:48:59.157Z,25.70
2018-07-05T04:51:38.976Z,28.60
2018-07-05T04:54:20.257Z,24.33
2018-07-05T04:57:00.220Z,17.40
2018-07-05T04:59:40.959Z,16.83
2018-07-05T05:02:22.221Z,16.73
2018-07-05T05:05:02.222Z,17.40
2018-07-05T05:07:42.037Z,17.60
2018-07-05T05:10:21.716Z,14.80
2018-07-05T05:13:01.663Z,10.30
2018-07-05T05:15:41.695Z,8.63
2018-07-05T05:18:21.350Z,9.00
2018-07-05T05:21:01.212Z,6.50
2018-07-05T05:23:41.361Z,6.30
2018-07-05T05:26:21.524Z,5.90
2018-07-05T05:29:01.118Z,8.20
2018-07-05T05:31:41.130Z,7.00
2018-07-05T05:34:22.455Z,7.73
2018-07-05T05:37:02.278Z,8.77
2018-07-05T05:39:45.470Z,10.20
2018-07-05T05:42:25.628Z,10.03
2018-07-05T05:45:05.275Z,10.17
2018-07-05T05:47:45.221Z,10.23
2018-07-05T05:50:28.439Z,11.50
2018-07-05T05:53:11.320Z,12.30
2018-07-05T05:55:52.661Z,13.13
2018-07-05T05:58:37.309Z,13.57
2018-07-05T06:01:22.516Z,13.73
2018-07-05T06:04:03.699Z,13.87
2018-07-05T06:06:43.538Z,13.20
2018-07-05T06:09:25.079Z,13.17
2018-07-05T06:12:08.160Z,13.53
2018-07-05T06:14:47.985Z,14.97
2018-07-05T06:17:33.380Z,13.93
2018-07-05T06:20:13.318Z,14.37
2018-07-05T06:22:54.247Z,13.90
2018-07-05T06:25:34.501Z,16.03
2018-07-05T06:28:14.386Z,14.97
2018-07-05T06:30:58.216Z,15.03
2018-07-05T06:33:37.836Z,13.67
2018-07-05T06:36:21.257Z,14.50
2018-07-05T06:39:00.943Z,14.30
2018-07-05T06:41:41.070Z,15.03
2018-07-05T06:44:24.235Z,13.73
2018-07-05T06:47:09.863Z,15.70
2018-07-05T06:49:52.950Z,13.40
2018-07-05T06:52:32.844Z,12.00
2018-07-05T06:55:12.819Z,14.30
2018-07-05T06:57:55.817Z,12.93
2018-07-05T07:00:35.528Z,11.90
2018-07-05T07:03:19.863Z,13.47
2018-07-05T07:05:59.545Z,12.47
2018-07-05T07:08:39.191Z,12.17
2018-07-05T07:11:18.687Z,12.10
2018-07-05T07:13:58.486Z,13.80
2018-07-05T07:16:37.955Z,13.00
2018-07-05T07:19:17.989Z,13.00
2018-07-05T07:21:59.313Z,11.07
2018-07-05T07:24:39.189Z,9.20
2018-07-05T07:27:19.420Z,7.00
2018-07-05T07:29:59.462Z,6.17
2018-07-05T07:32:38.969Z,5.10
2018-07-05T07:35:18.799Z,5.23
2018-07-05T07:37:59.382Z,5.77
2018-07-05T07:40:39.484Z,5.50
2018-07-05T07:43:06.796Z,6.07
2018-07-05T07:45:38.123Z,6.17
2018-07-05T07:48:06.626Z,7.03
2018-07-05T07:50:34.349Z,8.30
2018-07-05T07:53:01.639Z,7.47
2018-07-05T07:55:29.432Z,6.70
2018-07-05T07:57:56.750Z,6.40
2018-07-05T08:00:24.491Z,6.93
2018-07-05T08:02:52.012Z,7.47
2018-07-05T08:05:19.481Z,7.30
2018-07-05T08:07:47.064Z,7.10
2018-07-05T08:10:14.831Z,7.10
2018-07-05T08:12:42.114Z,7.70
2018-07-05T08:15:09.664Z,6.83
2018-07-05T08:17:45.443Z,6.83
2018-07-05T08:20:12.711Z,5.87
2018-07-05T08:22:40.296Z,5.80
2018-07-05T08:25:08.534Z,5.80
2018-07-05T08:27:35.860Z,6.93
2018-07-05T08:30:04.179Z,7.90
2018-07-05T08:32:31.769Z,8.50
2018-07-05T08:34:59.132Z,9.70
2018-07-05T08:37:26.632Z,8.77
2018-07-05T08:39:57.036Z,7.90
2018-07-05T08:42:24.316Z,5.03
2018-07-05T08:44:51.965Z,6.00
2018-07-05T08:47:19.269Z,5.10
2018-07-05T08:49:46.653Z,5.07
2018-07-05T08:52:14.366Z,4.27
2018-07-05T08:54:42.019Z,4.47
2018-07-05T08:57:09.303Z,5.00
2018-07-05T09:02:08.947Z,4.20
2018-07-05T09:04:36.239Z,4.23
2018-07-05T09:07:03.523Z,4.63
2018-07-05T09:09:31.112Z,3.93
2018-07-05T09:11:58.828Z,5.90
2018-07-05T09:14:26.125Z,6.57
2018-07-05T09:16:58.126Z,5.53
2018-07-05T09:19:25.728Z,5.17
2018-07-05T09:21:54.005Z,4.40
2018-07-05T09:24:21.406Z,4.53
2018-07-05T09:26:48.972Z,5.40
2018-07-05T09:29:16.275Z,5.07
2018-07-05T09:31:43.641Z,4.50
2018-07-05T09:34:11.240Z,5.20
2018-07-05T09:36:41.678Z,5.57
2018-07-05T09:39:08.966Z,4.80
2018-07-05T09:41:36.992Z,6.10
2018-07-05T09:44:04.809Z,4.20
2018-07-05T09:46:32.084Z,4.60
2018-07-05T09:49:06.279Z,4.50
2018-07-05T09:51:33.547Z,4.50
2018-07-05T09:54:07.012Z,4.83
2018-07-05T09:56:34.392Z,4.43
2018-07-05T09:59:06.605Z,4.80
2018-07-05T10:01:34.190Z,4.57
2018-07-05T10:04:03.366Z,4.60
2018-07-05T10:06:30.949Z,4.63
2018-07-05T10:08:58.631Z,4.90
2018-07-05T10:11:25.914Z,4.57
2018-07-05T10:13:53.641Z,5.00
2018-07-05T10:16:21.296Z,4.17
2018-07-05T10:18:48.592Z,4.97
2018-07-05T10:21:15.895Z,5.23
2018-07-05T10:23:43.431Z,6.07
2018-07-05T10:26:17.357Z,5.57
2018-07-05T10:29:03.983Z,5.77
2018-07-05T10:31:43.868Z,6.17
2018-07-05T10:34:11.182Z,5.63
2018-07-05T10:36:38.470Z,6.63
2018-07-05T10:39:06.088Z,5.57
2018-07-05T10:41:45.538Z,6.40
2018-07-05T10:44:25.451Z,5.60
2018-07-05T10:47:05.013Z,6.30
2018-07-05T10:49:45.210Z,5.70
2018-07-05T10:52:24.661Z,6.00
2018-07-05T10:55:07.949Z,5.67
2018-07-05T10:57:52.719Z,5.50
2018-07-05T11:03:22.712Z,5.70
2018-07-05T11:06:13.056Z,5.10
2018-07-05T11:08:53.000Z,5.40
2018-07-05T11:11:32.882Z,5.00
2018-07-05T11:14:13.363Z,6.57
2018-07-05T11:16:53.583Z,6.53
2018-07-05T11:19:33.232Z,7.47
2018-07-05T11:22:12.970Z,6.90
2018-07-05T11:24:52.475Z,8.47
2018-07-05T11:27:32.493Z,4.77
2018-07-05T11:30:12.101Z,5.03
2018-07-05T11:32:52.028Z,4.50
2018-07-05T11:35:31.510Z,4.17
2018-07-05T11:38:11.784Z,4.50
2018-07-05T11:40:54.865Z,4.40
2018-07-05T11:43:34.634Z,4.00
2018-07-05T11:46:14.513Z,3.93
2018-07-05T11:48:54.818Z,4.43
2018-07-05T11:51:35.075Z,4.67
2018-07-05T11:54:15.300Z,4.17
2018-07-05T11:56:55.618Z,4.13
2018-07-05T11:59:35.998Z,3.93
2018-07-05T12:02:18.690Z,4.30
2018-07-05T12:05:03.920Z,3.73
2018-07-05T12:07:50.526Z,4.23
2018-07-05T12:10:32.095Z,5.50
2018-07-05T12:13:12.082Z,5.40
2018-07-05T12:15:52.035Z,4.97
2018-07-05T12:18:32.044Z,5.30
2018-07-05T12:21:11.656Z,9.47
2018-07-05T12:23:55.543Z,13.27
2018-07-05T12:26:35.026Z,14.80
2018-07-05T12:29:20.621Z,12.30
2018-07-05T12:32:17.099Z,9.43
2018-07-05T12:34:57.873Z,8.63
2018-07-05T12:40:41.915Z,7.43
2018-07-05T12:43:26.144Z,6.10
2018-07-05T12:52:04.567Z,6.90
2018-07-05T12:54:50.108Z,8.97
2018-07-05T12:57:44.506Z,9.97
2018-07-05T13:00:26.598Z,6.30
2018-07-05T13:03:07.200Z,4.47
2018-07-05T13:05:47.728Z,4.83
2018-07-05T13:08:32.808Z,5.60
2018-07-05T13:11:13.719Z,5.10
2018-07-05T13:13:58.223Z,5.40
2018-07-05T13:16:42.705Z,5.53
2018-07-05T13:19:23.310Z,5.30
2018-07-05T13:22:08.382Z,5.20
2018-07-05T13:27:09.839Z,4.70
2018-07-05T13:29:50.202Z,4.80
2018-07-05T13:32:29.788Z,4.50
2018-07-05T13:35:11.803Z,4.77
2018-07-05T13:37:54.289Z,5.00
2018-07-05T13:40:34.198Z,4.60
2018-07-05T13:43:14.035Z,4.50
2018-07-05T13:45:53.733Z,6.03
2018-07-05T13:48:36.392Z,4.27
2018-07-05T13:51:19.191Z,4.43
2018-07-05T13:54:04.849Z,4.13
2018-07-05T13:56:44.443Z,4.13
2018-07-05T13:59:26.233Z,4.30
2018-07-05T14:02:06.596Z,4.23
2018-07-05T14:04:51.848Z,4.50
2018-07-05T14:07:32.008Z,3.70
2018-07-05T14:10:12.191Z,4.50
2018-07-05T14:12:53.690Z,3.80
2018-07-05T14:15:38.861Z,3.83
2018-07-05T14:18:24.308Z,4.20
2018-07-05T14:23:57.196Z,4.07
2018-07-05T14:26:37.271Z,3.83
2018-07-05T14:29:17.041Z,3.97
2018-07-05T14:31:56.911Z,4.07
2018-07-05T14:34:36.677Z,4.03
2018-07-05T14:37:16.664Z,3.93
2018-07-05T14:39:56.560Z,3.83
2018-07-05T14:42:36.693Z,3.90
2018-07-05T14:45:16.728Z,3.57
2018-07-05T14:47:56.952Z,3.40
2018-07-05T14:50:36.593Z,2.60
2018-07-05T14:53:16.512Z,3.10
2018-07-05T14:55:56.437Z,3.70
2018-07-05T14:58:36.353Z,3.53
2018-07-05T15:01:15.932Z,3.20
2018-07-05T15:03:55.956Z,3.53
2018-07-05T15:06:35.829Z,3.73
2018-07-05T15:09:15.773Z,3.50
2018-07-05T15:11:55.361Z,3.57
2018-07-05T15:14:35.165Z,3.67
2018-07-05T15:17:14.801Z,3.90
2018-07-05T15:19:54.854Z,3.33
2018-07-05T15:22:34.615Z,3.40
2018-07-05T15:25:14.520Z,4.00
2018-07-05T15:27:54.536Z,3.90
2018-07-05T15:30:34.802Z,3.53
2018-07-05T15:33:14.514Z,3.60
2018-07-05T15:35:54.275Z,4.00
2018-07-05T15:38:34.124Z,3.50
2018-07-05T15:43:48.778Z,3.63
2018-07-05T15:46:28.498Z,4.20
2018-07-05T15:49:08.685Z,3.80
2018-07-05T15:51:48.280Z,4.03
2018-07-05T15:54:28.324Z,4.53
2018-07-05T15:57:07.867Z,4.27
2018-07-05T15:59:47.681Z,4.10
2018-07-05T16:02:27.350Z,4.40
2018-07-05T16:05:07.313Z,4.17
2018-07-05T16:07:46.872Z,4.20
2018-07-05T16:10:26.800Z,3.57
2018-07-05T16:13:06.512Z,4.47
2018-07-05T16:15:50.432Z,4.30
2018-07-05T16:18:30.420Z,4.00
2018-07-05T16:21:10.997Z,4.10
2018-07-05T16:23:51.084Z,4.30
2018-07-05T16:26:30.793Z,4.47
2018-07-05T16:29:10.582Z,4.00
2018-07-05T16:31:52.611Z,4.40
2018-07-05T16:34:32.286Z,4.00
2018-07-05T16:37:12.173Z,3.90
2018-07-05T16:39:51.788Z,4.90
2018-07-05T16:42:33.973Z,4.03
2018-07-05T16:45:13.552Z,4.17
2018-07-05T16:47:53.438Z,4.30
2018-07-05T16:50:33.484Z,4.50
2018-07-05T16:53:13.482Z,9.40
2018-07-05T16:55:53.045Z,4.20
2018-07-05T16:58:33.022Z,4.20
2018-07-05T17:01:12.610Z,4.77
2018-07-05T17:03:52.464Z,4.77
2018-07-05T17:06:32.027Z,3.73
2018-07-05T17:09:11.917Z,4.63
2018-07-05T17:11:51.524Z,4.43
2018-07-05T17:14:31.412Z,4.13
2018-07-05T17:17:11.189Z,4.50
2018-07-05T17:19:51.390Z,4.57
2018-07-05T17:22:31.139Z,4.20
2018-07-05T17:25:11.357Z,4.30
2018-07-05T17:27:51.033Z,4.03
2018-07-05T17:30:31.063Z,3.93
2018-07-05T17:33:10.693Z,4.47
2018-07-05T17:35:50.853Z,4.00
2018-07-05T17:38:31.137Z,3.77
2018-07-05T17:41:11.224Z,3.90
2018-07-05T17:43:51.165Z,3.60
2018-07-05T17:46:31.296Z,4.00
2018-07-05T17:49:10.889Z,3.60
2018-07-05T17:51:51.161Z,4.63
2018-07-05T17:54:30.878Z,4.67
2018-07-05T17:57:10.429Z,4.30
2018-07-05T17:59:50.270Z,4.00
2018-07-05T18:02:29.877Z,3.57
2018-07-05T18:05:10.135Z,3.87
2018-07-05T18:07:49.712Z,3.40
2018-07-05T18:10:29.685Z,4.10
2018-07-05T18:13:09.322Z,3.43
2018-07-05T18:15:49.426Z,3.30
2018-07-05T18:18:28.980Z,3.50
2018-07-05T18:21:09.023Z,3.53
2018-07-05T18:23:48.670Z,3.50
2018-07-05T18:26:28.817Z,3.07
2018-07-05T18:29:08.399Z,3.43
2018-07-05T18:31:49.337Z,3.63
2018-07-05T18:34:28.927Z,3.30
2018-07-05T18:37:08.921Z,3.20
2018-07-05T18:39:48.508Z,3.60
2018-07-05T18:42:28.361Z,3.10
2018-07-05T18:45:08.179Z,3.20
2018-07-05T18:47:47.777Z,3.93
2018-07-05T18:50:27.308Z,3.83
2018-07-05T18:53:07.211Z,3.83
2018-07-05T18:55:47.048Z,4.47
2018-07-05T18:58:26.938Z,4.20
2018-07-05T19:01:06.828Z,4.40
2018-07-05T19:03:46.683Z,3.90
2018-07-05T19:06:26.705Z,3.80
2018-07-05T19:09:06.705Z,4.07
2018-07-05T19:11:46.250Z,3.70
2018-07-05T19:14:25.994Z,3.70
2018-07-05T19:17:05.918Z,3.23
2018-07-05T19:19:45.763Z,3.17
2018-07-05T19:22:25.445Z,3.27
2018-07-05T19:25:07.392Z,3.33
2018-07-05T19:27:47.849Z,3.20
2018-07-05T19:30:28.016Z,3.03
2018-07-05T19:33:08.805Z,2.93
2018-07-05T19:35:49.218Z,3.83
2018-07-05T19:38:29.851Z,2.80
2018-07-05T19:41:10.821Z,3.10
2018-07-05T19:43:50.390Z,2.97
2018-07-05T19:46:31.281Z,3.17
2018-07-05T19:49:11.309Z,3.27
2018-07-05T19:51:51.125Z,3.20
2018-07-05T19:54:30.734Z,3.20
2018-07-05T19:57:11.745Z,3.10
2018-07-05T19:59:51.748Z,2.90
2018-07-05T20:02:31.637Z,2.70
2018-07-05T20:05:11.267Z,3.30
2018-07-05T20:07:51.145Z,3.20
2018-07-05T20:10:30.736Z,2.80
2018-07-05T20:13:10.633Z,3.73
2018-07-05T20:15:50.352Z,3.53
2018-07-05T20:18:29.916Z,3.30
2018-07-05T20:21:09.795Z,3.53
2018-07-05T20:23:49.448Z,3.63
2018-07-05T20:26:29.219Z,3.33
2018-07-05T20:29:08.884Z,3.87
2018-07-05T20:31:48.987Z,3.93
2018-07-05T20:34:28.576Z,4.00
2018-07-05T20:37:08.378Z,4.27
2018-07-05T20:39:47.934Z,4.63
2018-07-05T20:42:27.634Z,6.87
2018-07-05T20:45:07.249Z,5.73
2018-07-05T20:47:48.118Z,7.43
2018-07-05T20:50:27.820Z,7.00
2018-07-05T20:53:07.659Z,5.33
2018-07-05T20:55:47.245Z,5.40
2018-07-05T20:58:27.139Z,4.60
2018-07-05T21:01:06.812Z,5.17
2018-07-05T21:03:47.122Z,5.20
2018-07-05T21:06:27.449Z,5.63
2018-07-05T21:09:07.268Z,8.00
2018-07-05T21:11:47.002Z,7.60
2018-07-05T21:14:27.058Z,6.50
2018-07-05T21:17:06.553Z,7.93
2018-07-05T21:19:46.592Z,6.93
2018-07-05T21:22:26.343Z,9.97
2018-07-05T21:25:06.259Z,11.20
2018-07-05T21:27:45.965Z,9.40
2018-07-05T21:30:26.069Z,11.20
2018-07-05T21:33:05.742Z,9.30
2018-07-05T21:35:45.757Z,7.83
2018-07-05T21:38:25.493Z,6.97
2018-07-05T21:41:05.658Z,5.77
2018-07-05T21:43:45.403Z,4.90
2018-07-05T21:46:25.265Z,4.97
2018-07-05T21:49:04.867Z,5.23
2018-07-05T21:51:44.857Z,5.30
2018-07-05T21:54:24.417Z,5.30
2018-07-05T21:57:04.453Z,5.50
2018-07-05T21:59:44.348Z,5.30
2018-07-05T22:02:24.541Z,5.20
2018-07-05T22:05:05.875Z,5.07
2018-07-05T22:07:48.355Z,5.87
2018-07-05T22:10:30.729Z,6.77
2018-07-05T22:13:18.160Z,5.87
2018-07-05T22:16:07.284Z,6.70
2018-07-05T22:18:53.806Z,6.60
2018-07-05T22:21:40.763Z,5.93
2018-07-05T22:26:54.916Z,5.70
2018-07-05T22:29:41.392Z,5.20
2018-07-05T22:32:23.222Z,5.03
2018-07-05T22:35:07.966Z,5.60
2018-07-05T22:37:56.652Z,5.40
2018-07-05T22:40:36.946Z,5.17
2018-07-05T22:43:19.970Z,5.37
2018-07-05T22:46:00.423Z,5.80
2018-07-05T22:48:40.450Z,4.83
2018-07-05T22:51:22.468Z,5.00
2018-07-05T22:54:05.361Z,6.00
2018-07-05T22:56:45.140Z,6.63
2018-07-05T22:59:25.362Z,5.97
2018-07-05T23:02:04.923Z,7.30
2018-07-05T23:04:44.736Z,6.80
2018-07-05T23:07:24.316Z,9.00
2018-07-05T23:10:04.809Z,8.97
2018-07-05T23:12:44.512Z,8.00
2018-07-05T23:15:24.044Z,8.40
2018-07-05T23:18:04.333Z,7.30
2018-07-05T23:23:04.342Z,7.90
2018-07-05T23:25:44.044Z,7.67
2018-07-05T23:28:24.214Z,8.07
2018-07-05T23:31:04.013Z,6.87
2018-07-05T23:33:44.227Z,7.83
2018-07-05T23:38:52.911Z,15.90
2018-07-05T23:41:32.667Z,12.73
2018-07-05T23:44:13.069Z,13.80
2018-07-05T23:46:52.903Z,14.07
2018-07-05T23:49:32.954Z,12.30
2018-07-05T23:52:12.690Z,12.70
2018-07-05T23:54:52.827Z,13.10
2018-07-05T23:57:32.484Z,11.63
